HEMA

Marsa Alam International Airport

Airport
ICAO code
HEMA
IATA Code
RMF
Summary
ICAO Region
EUR
ICAO Territory
Location

Marsa Alam, Al Bahr al Ahmar

Serving
Marsa Alam
Elevation
251 ft
Coordinates
25° 33' 26" N , 34° 35' 1" E
Metar
HEMA 181600Z 12005KT 9999 FEW025 30/12 Q1008 NOSIG

Runways

Designator Length Width Surface Rops
15/33 3000 45 ASP Yes/Yes

Airport map

Aerial View

SKYbrary Partners:

Safety knowledge contributed by: